createdAt,value
2023-08-02T00:01:09.015Z,15.32
2023-08-02T00:03:35.794Z,15.29
2023-08-02T00:06:02.675Z,15.30
2023-08-02T00:08:30.265Z,15.14
2023-08-02T00:10:57.206Z,15.02
2023-08-02T00:13:23.903Z,15.11
2023-08-02T00:15:53.664Z,15.15
2023-08-02T00:18:20.578Z,15.24
2023-08-02T00:20:48.422Z,15.24
2023-08-02T00:23:15.631Z,15.29
2023-08-02T00:25:42.293Z,15.18
2023-08-02T00:28:08.939Z,15.24
2023-08-02T00:30:44.942Z,15.19
2023-08-02T00:33:12.172Z,15.11
2023-08-02T00:35:47.950Z,15.05
2023-08-02T00:38:14.968Z,15.06
2023-08-02T00:40:41.934Z,14.97
2023-08-02T00:43:08.661Z,14.95
2023-08-02T00:45:36.910Z,14.99
2023-08-02T00:48:04.021Z,14.92
2023-08-02T00:50:34.379Z,14.93
2023-08-02T00:53:01.305Z,14.87
2023-08-02T00:55:28.426Z,14.90
2023-08-02T00:57:55.045Z,14.80
2023-08-02T01:00:21.949Z,14.73
2023-08-02T01:02:48.672Z,14.84
2023-08-02T01:05:15.520Z,14.87
2023-08-02T01:07:52.668Z,14.91
2023-08-02T01:10:43.617Z,14.99
2023-08-02T01:13:15.071Z,15.00
2023-08-02T01:15:42.221Z,14.76
2023-08-02T01:18:09.626Z,14.69
2023-08-02T01:20:36.499Z,14.57
2023-08-02T01:23:03.112Z,14.58
2023-08-02T01:25:32.594Z,14.38
2023-08-02T01:28:03.365Z,14.69
2023-08-02T01:30:34.873Z,14.65
2023-08-02T01:33:01.651Z,14.83
2023-08-02T01:35:28.968Z,14.94
2023-08-02T01:37:56.142Z,14.87
2023-08-02T01:40:22.955Z,14.93
2023-08-02T01:42:49.633Z,14.91
2023-08-02T01:45:16.295Z,14.94
2023-08-02T01:47:42.971Z,14.93
2023-08-02T01:50:09.927Z,14.89
2023-08-02T01:52:36.573Z,14.78
2023-08-02T01:55:03.270Z,14.84
2023-08-02T01:57:29.912Z,14.87
2023-08-02T01:59:57.062Z,14.90
2023-08-02T02:02:23.756Z,14.87
2023-08-02T02:04:52.160Z,14.91
2023-08-02T02:07:18.905Z,14.98
2023-08-02T02:09:45.537Z,14.87
2023-08-02T02:12:12.219Z,14.86
2023-08-02T02:14:38.800Z,14.91
2023-08-02T02:17:05.462Z,15.10
2023-08-02T02:19:32.094Z,15.20
2023-08-02T02:21:58.734Z,14.97
2023-08-02T02:24:25.445Z,14.93
2023-08-02T02:26:52.037Z,14.89
2023-08-02T02:29:18.666Z,14.89
2023-08-02T02:31:45.288Z,14.98
2023-08-02T02:34:12.064Z,14.95
2023-08-02T02:36:39.939Z,14.97
2023-08-02T02:39:06.909Z,14.93
2023-08-02T02:41:33.544Z,14.91
2023-08-02T02:44:00.123Z,15.00
2023-08-02T02:46:26.728Z,14.99
2023-08-02T02:48:53.668Z,15.20
2023-08-02T02:51:20.291Z,15.22
2023-08-02T02:53:46.911Z,15.36
2023-08-02T02:56:13.615Z,15.14
2023-08-02T02:58:40.191Z,15.25
2023-08-02T03:01:06.839Z,15.28
2023-08-02T03:03:33.588Z,15.31
2023-08-02T03:06:00.505Z,15.46
2023-08-02T03:08:27.123Z,15.43
2023-08-02T03:10:53.821Z,15.36
2023-08-02T03:13:20.398Z,15.46
2023-08-02T03:15:46.972Z,15.43
2023-08-02T03:18:13.714Z,15.50
2023-08-02T03:20:40.895Z,15.50
2023-08-02T03:23:08.675Z,15.54
2023-08-02T03:25:35.435Z,15.43
2023-08-02T03:28:02.086Z,15.52
2023-08-02T03:30:28.703Z,15.69
2023-08-02T03:32:55.494Z,15.59
2023-08-02T03:35:22.170Z,15.46
2023-08-02T03:37:48.756Z,15.45
2023-08-02T03:40:15.400Z,15.30
2023-08-02T03:42:42.076Z,15.44
2023-08-02T03:45:09.059Z,15.48
2023-08-02T03:47:35.724Z,15.51
2023-08-02T03:50:02.402Z,15.49
2023-08-02T03:52:29.035Z,15.57
2023-08-02T03:54:55.775Z,15.55
2023-08-02T03:57:22.430Z,15.52
2023-08-02T03:59:49.012Z,15.61
2023-08-02T04:02:15.763Z,15.63
2023-08-02T04:04:44.344Z,15.72
2023-08-02T04:07:11.217Z,15.73
2023-08-02T04:09:37.872Z,15.76
2023-08-02T04:12:05.029Z,15.83
2023-08-02T04:14:31.695Z,15.85
2023-08-02T04:16:58.324Z,15.74
2023-08-02T04:19:26.842Z,15.84
2023-08-02T04:21:53.451Z,15.80
2023-08-02T04:24:20.211Z,15.87
2023-08-02T04:26:46.801Z,15.89
2023-08-02T04:29:13.500Z,15.97
2023-08-02T04:31:40.315Z,15.91
2023-08-02T04:34:07.109Z,15.93
2023-08-02T04:36:33.775Z,15.88
2023-08-02T04:39:03.457Z,15.88
2023-08-02T04:41:30.222Z,16.01
2023-08-02T04:43:56.893Z,16.06
2023-08-02T04:46:26.768Z,16.14
2023-08-02T04:48:53.598Z,16.07
2023-08-02T04:51:20.377Z,16.11
2023-08-02T04:53:49.616Z,15.93
2023-08-02T04:56:16.643Z,16.00
2023-08-02T04:58:43.565Z,16.06
2023-08-02T05:01:10.358Z,16.13
2023-08-02T05:03:37.508Z,16.08
2023-08-02T05:06:06.730Z,16.10
2023-08-02T05:08:37.372Z,16.09
2023-08-02T05:11:09.987Z,16.09
2023-08-02T05:13:36.742Z,16.13
2023-08-02T05:16:03.540Z,16.16
2023-08-02T05:18:30.212Z,16.13
2023-08-02T05:20:56.861Z,16.24
2023-08-02T05:23:23.522Z,16.21
2023-08-02T05:25:50.174Z,16.19
2023-08-02T05:28:16.908Z,16.23
2023-08-02T05:30:43.706Z,16.28
2023-08-02T05:33:10.395Z,16.23
2023-08-02T05:35:37.068Z,16.26
2023-08-02T05:38:04.150Z,16.35
2023-08-02T05:40:30.764Z,16.42
2023-08-02T05:42:57.919Z,16.59
2023-08-02T05:45:25.333Z,16.57
2023-08-02T05:47:52.236Z,16.43
2023-08-02T05:50:18.975Z,16.22
2023-08-02T05:52:45.683Z,16.37
2023-08-02T05:55:13.423Z,16.45
2023-08-02T05:57:40.701Z,16.39
2023-08-02T06:00:08.515Z,16.37
2023-08-02T06:02:35.717Z,16.31
2023-08-02T06:05:02.930Z,16.37
2023-08-02T06:07:30.988Z,16.36
2023-08-02T06:09:57.656Z,16.24
2023-08-02T06:12:24.467Z,16.38
2023-08-02T06:14:51.121Z,16.39
2023-08-02T06:17:18.086Z,16.37
2023-08-02T06:19:44.847Z,16.35
2023-08-02T06:22:11.890Z,16.40
2023-08-02T06:24:38.625Z,16.28
2023-08-02T06:27:05.589Z,16.36
2023-08-02T06:29:33.026Z,16.37
2023-08-02T06:32:02.007Z,16.43
2023-08-02T06:34:31.352Z,16.45
2023-08-02T06:36:58.222Z,16.29
2023-08-02T06:39:25.362Z,16.36
2023-08-02T06:41:51.982Z,16.39
2023-08-02T06:44:19.519Z,16.39
2023-08-02T06:46:46.272Z,16.51
2023-08-02T06:49:12.981Z,16.60
2023-08-02T06:51:39.882Z,16.79
2023-08-02T06:54:06.883Z,16.90
2023-08-02T06:56:38.657Z,16.86
2023-08-02T06:59:05.554Z,16.87
2023-08-02T07:01:32.245Z,16.82
2023-08-02T07:03:58.885Z,16.92
2023-08-02T07:06:27.987Z,17.00
2023-08-02T07:08:55.017Z,17.09
2023-08-02T07:11:35.760Z,17.00
2023-08-02T07:14:15.808Z,16.99
2023-08-02T07:16:50.795Z,16.94
2023-08-02T07:19:20.202Z,16.93
2023-08-02T07:21:49.354Z,17.06
2023-08-02T07:24:17.465Z,17.03
2023-08-02T07:26:44.096Z,17.15
2023-08-02T07:29:15.232Z,17.23
2023-08-02T07:31:42.191Z,17.47
2023-08-02T07:34:09.034Z,17.84
2023-08-02T07:36:37.624Z,18.09
2023-08-02T07:39:04.370Z,18.12
2023-08-02T07:41:31.977Z,18.11
2023-08-02T07:43:58.597Z,17.98
2023-08-02T07:46:25.387Z,18.28
2023-08-02T07:48:53.129Z,18.33
2023-08-02T07:51:20.613Z,18.78
2023-08-02T07:53:47.807Z,18.88
2023-08-02T07:56:14.498Z,18.89
2023-08-02T07:58:41.166Z,18.76
2023-08-02T08:01:09.236Z,18.75
2023-08-02T08:03:36.799Z,18.57
2023-08-02T08:06:13.810Z,18.66
2023-08-02T08:08:41.327Z,18.71
2023-08-02T08:11:07.981Z,18.63
2023-08-02T08:13:34.743Z,18.53
2023-08-02T08:16:02.348Z,18.64
2023-08-02T08:18:31.145Z,18.59
2023-08-02T08:20:58.371Z,18.69
2023-08-02T08:23:25.004Z,19.02
2023-08-02T08:25:51.606Z,18.78
2023-08-02T08:28:18.857Z,18.95
2023-08-02T08:30:45.754Z,19.24
2023-08-02T08:33:12.366Z,19.28
2023-08-02T08:35:39.070Z,19.45
2023-08-02T08:38:05.711Z,19.65
2023-08-02T08:40:33.507Z,19.33
2023-08-02T08:43:01.753Z,19.07
2023-08-02T08:45:29.131Z,19.05
2023-08-02T08:47:55.776Z,19.23
2023-08-02T08:50:23.493Z,19.35
2023-08-02T08:52:53.906Z,19.10
2023-08-02T08:55:22.424Z,18.78
2023-08-02T08:57:51.534Z,19.05
2023-08-02T09:00:19.152Z,19.07
2023-08-02T09:02:47.713Z,19.02
2023-08-02T09:05:14.800Z,19.02
2023-08-02T09:07:41.415Z,19.01
2023-08-02T09:10:08.609Z,19.15
2023-08-02T09:12:46.185Z,18.88
2023-08-02T09:15:15.421Z,18.91
2023-08-02T09:17:53.105Z,18.88
2023-08-02T09:20:22.113Z,18.67
2023-08-02T09:22:48.847Z,18.38
2023-08-02T09:25:24.707Z,18.37
2023-08-02T09:27:52.876Z,18.44
2023-08-02T09:30:36.001Z,18.34
2023-08-02T09:33:04.396Z,18.71
2023-08-02T09:35:46.208Z,18.76
2023-08-02T09:38:12.937Z,18.96
2023-08-02T09:41:09.844Z,19.00
2023-08-02T09:43:28.647Z,18.96
2023-08-02T09:45:56.038Z,18.97
2023-08-02T09:48:35.181Z,18.89
2023-08-02T09:51:04.788Z,18.78
2023-08-02T09:53:32.396Z,18.94
2023-08-02T09:56:01.770Z,18.85
2023-08-02T09:58:31.884Z,18.61
2023-08-02T10:01:00.070Z,18.47
2023-08-02T10:03:28.912Z,18.50
2023-08-02T10:05:59.422Z,18.53
2023-08-02T10:08:30.971Z,18.52
2023-08-02T10:10:59.233Z,18.75
2023-08-02T10:13:27.828Z,18.94
2023-08-02T10:15:56.957Z,18.77
2023-08-02T10:18:26.044Z,18.49
2023-08-02T10:20:54.128Z,18.45
2023-08-02T10:23:20.748Z,18.55
2023-08-02T10:25:48.684Z,18.27
2023-08-02T10:28:16.343Z,18.17
2023-08-02T10:30:43.282Z,18.40
2023-08-02T10:33:22.105Z,18.44
2023-08-02T10:36:08.739Z,18.81
2023-08-02T10:38:41.216Z,18.97
2023-08-02T10:41:12.812Z,18.82
2023-08-02T10:43:54.480Z,19.20
2023-08-02T10:46:29.551Z,19.24
2023-08-02T10:49:19.001Z,18.99
2023-08-02T10:51:46.642Z,18.83
2023-08-02T10:54:24.324Z,18.68
2023-08-02T10:56:54.418Z,18.94
2023-08-02T10:59:24.072Z,18.89
2023-08-02T11:01:58.509Z,18.78
2023-08-02T11:04:26.181Z,18.65
2023-08-02T11:06:53.371Z,19.03
2023-08-02T11:09:31.108Z,19.20
2023-08-02T11:11:57.706Z,19.41
2023-08-02T11:14:28.363Z,19.45
2023-08-02T11:16:55.576Z,19.21
2023-08-02T11:19:23.666Z,19.04
2023-08-02T11:21:55.452Z,18.96
2023-08-02T11:24:25.649Z,19.34
2023-08-02T11:26:56.437Z,19.35
2023-08-02T11:29:23.532Z,19.59
2023-08-02T11:31:51.967Z,19.15
2023-08-02T11:34:20.383Z,18.95
2023-08-02T11:36:49.901Z,18.93
2023-08-02T11:39:18.499Z,18.89
2023-08-02T11:41:45.437Z,18.81
2023-08-02T11:44:19.746Z,18.82
2023-08-02T11:46:56.979Z,19.21
2023-08-02T11:49:24.491Z,19.16
2023-08-02T11:51:51.235Z,18.91
2023-08-02T11:54:18.190Z,19.13
2023-08-02T11:56:45.813Z,19.03
2023-08-02T11:59:13.387Z,19.03
2023-08-02T12:01:43.779Z,18.96
2023-08-02T12:04:10.634Z,19.07
2023-08-02T12:06:53.862Z,19.01
2023-08-02T12:09:38.809Z,19.02
2023-08-02T12:12:06.072Z,18.84
2023-08-02T12:14:34.219Z,18.82
2023-08-02T12:17:02.493Z,18.92
2023-08-02T12:19:44.766Z,18.19
2023-08-02T12:22:13.679Z,18.38
2023-08-02T12:24:40.462Z,18.39
2023-08-02T12:27:22.864Z,18.45
2023-08-02T12:30:07.320Z,18.29
2023-08-02T12:32:33.963Z,18.42
2023-08-02T12:35:12.346Z,18.52
2023-08-02T12:37:39.623Z,18.43
2023-08-02T12:40:07.094Z,18.41
2023-08-02T12:42:35.902Z,18.51
2023-08-02T12:45:16.523Z,18.89
2023-08-02T12:47:44.250Z,18.92
2023-08-02T12:50:11.212Z,18.64
2023-08-02T12:52:37.877Z,18.81
2023-08-02T12:55:04.885Z,18.81
2023-08-02T12:57:31.573Z,18.83
2023-08-02T13:00:00.389Z,18.99
2023-08-02T13:02:27.401Z,19.37
2023-08-02T13:04:54.061Z,19.18
2023-08-02T13:07:21.234Z,19.33
2023-08-02T13:09:51.496Z,19.76
2023-08-02T13:12:24.290Z,20.15
2023-08-02T13:14:59.076Z,20.37
2023-08-02T13:17:25.878Z,20.28
2023-08-02T13:19:52.605Z,19.89
2023-08-02T13:22:19.307Z,19.83
2023-08-02T13:24:45.992Z,19.77
2023-08-02T13:27:12.627Z,19.43
2023-08-02T13:29:39.234Z,19.42
2023-08-02T13:32:06.035Z,19.08
2023-08-02T13:34:32.743Z,19.21
2023-08-02T13:36:59.448Z,18.74
2023-08-02T13:39:27.587Z,19.16
2023-08-02T13:41:54.243Z,19.27
2023-08-02T13:44:20.925Z,19.22
2023-08-02T13:46:47.648Z,19.07
2023-08-02T13:49:14.535Z,19.07
2023-08-02T13:51:41.455Z,19.05
2023-08-02T13:54:08.154Z,18.97
2023-08-02T13:56:34.762Z,18.85
2023-08-02T13:59:02.556Z,18.56
2023-08-02T14:01:31.102Z,18.93
2023-08-02T14:03:57.767Z,19.15
2023-08-02T14:06:24.706Z,19.14
2023-08-02T14:08:51.472Z,19.08
2023-08-02T14:11:18.481Z,19.32
2023-08-02T14:13:45.125Z,19.10
2023-08-02T14:16:11.752Z,19.26
2023-08-02T14:18:38.426Z,19.27
2023-08-02T14:21:05.142Z,19.47
2023-08-02T14:23:33.610Z,19.35
2023-08-02T14:26:00.319Z,19.32
2023-08-02T14:28:26.946Z,19.51
2023-08-02T14:30:53.643Z,19.49
2023-08-02T14:33:20.307Z,19.16
2023-08-02T14:35:46.923Z,19.32
2023-08-02T14:38:13.536Z,18.97
2023-08-02T14:40:40.169Z,19.09
2023-08-02T14:43:06.838Z,19.10
2023-08-02T14:45:33.502Z,19.37
2023-08-02T14:48:00.178Z,19.54
2023-08-02T14:50:27.900Z,19.53
2023-08-02T14:52:55.144Z,19.53
2023-08-02T14:55:21.944Z,19.39
2023-08-02T14:57:48.768Z,19.07
2023-08-02T15:00:15.770Z,19.06
2023-08-02T15:02:42.637Z,18.97
2023-08-02T15:05:09.712Z,18.92
2023-08-02T15:07:36.374Z,18.84
2023-08-02T15:10:03.242Z,18.79
2023-08-02T15:12:29.912Z,18.37
2023-08-02T15:14:56.598Z,18.38
2023-08-02T15:17:23.209Z,18.34
2023-08-02T15:19:49.848Z,18.58
2023-08-02T15:22:16.476Z,18.38
2023-08-02T15:24:43.083Z,18.26
2023-08-02T15:27:09.708Z,18.17
2023-08-02T15:29:36.369Z,18.03
2023-08-02T15:32:03.773Z,18.18
2023-08-02T15:34:30.567Z,18.49
2023-08-02T15:36:57.152Z,18.38
2023-08-02T15:39:23.827Z,18.21
2023-08-02T15:41:50.494Z,18.26
2023-08-02T15:44:17.107Z,18.17
2023-08-02T15:46:44.027Z,18.08
2023-08-02T15:49:10.953Z,18.00
2023-08-02T15:51:37.709Z,18.09
2023-08-02T15:54:04.517Z,18.15
2023-08-02T15:56:31.145Z,18.38
2023-08-02T15:58:57.803Z,18.45
2023-08-02T16:01:26.512Z,17.96
2023-08-02T16:03:53.156Z,17.98
2023-08-02T16:06:19.817Z,17.84
2023-08-02T16:08:47.118Z,18.11
2023-08-02T16:11:16.336Z,18.14
2023-08-02T16:13:42.943Z,18.37
2023-08-02T16:16:09.832Z,18.24
2023-08-02T16:18:36.465Z,18.44
2023-08-02T16:21:03.504Z,18.50
2023-08-02T16:23:30.314Z,18.57
2023-08-02T16:25:56.988Z,18.29
2023-08-02T16:28:23.634Z,18.18
2023-08-02T16:30:50.320Z,18.11
2023-08-02T16:33:16.957Z,18.33
2023-08-02T16:35:45.368Z,18.49
2023-08-02T16:38:15.506Z,18.31
2023-08-02T16:40:45.319Z,18.44
2023-08-02T16:43:13.143Z,18.54
2023-08-02T16:45:40.238Z,18.59
2023-08-02T16:48:07.562Z,18.44
2023-08-02T16:50:34.810Z,18.47
2023-08-02T16:53:01.880Z,18.57
2023-08-02T16:55:29.430Z,18.62
2023-08-02T16:57:57.540Z,18.81
2023-08-02T17:00:24.254Z,18.48
2023-08-02T17:02:51.207Z,18.41
2023-08-02T17:05:17.938Z,18.25
2023-08-02T17:07:45.636Z,18.15
2023-08-02T17:10:12.451Z,18.12
2023-08-02T17:12:39.096Z,17.82
2023-08-02T17:15:06.142Z,17.86
2023-08-02T17:17:33.224Z,18.00
2023-08-02T17:20:00.118Z,18.19
2023-08-02T17:22:26.950Z,18.10
2023-08-02T17:24:53.612Z,18.26
2023-08-02T17:27:20.191Z,18.27
2023-08-02T17:29:46.862Z,18.46
2023-08-02T17:32:13.592Z,18.29
2023-08-02T17:34:40.262Z,18.17
2023-08-02T17:37:06.897Z,18.32
2023-08-02T17:39:33.508Z,18.52
2023-08-02T17:42:02.854Z,18.69
2023-08-02T17:44:29.590Z,18.86
2023-08-02T17:46:56.245Z,18.85
2023-08-02T17:49:22.898Z,19.04
2023-08-02T17:51:49.556Z,18.97
2023-08-02T17:54:16.190Z,19.07
2023-08-02T17:56:42.808Z,18.99
2023-08-02T17:59:09.518Z,18.75
2023-08-02T18:01:36.238Z,18.51
2023-08-02T18:04:02.863Z,18.70
2023-08-02T18:06:30.778Z,18.52
2023-08-02T18:08:57.511Z,18.65
2023-08-02T18:11:24.306Z,18.62
2023-08-02T18:13:50.932Z,18.50
2023-08-02T18:16:17.731Z,18.31
2023-08-02T18:18:44.562Z,18.11
2023-08-02T18:21:12.962Z,17.92
2023-08-02T18:23:40.060Z,18.08
2023-08-02T18:26:12.552Z,18.10
2023-08-02T18:28:46.817Z,17.86
2023-08-02T18:31:18.153Z,17.60
2023-08-02T18:33:46.494Z,17.52
2023-08-02T18:36:15.043Z,17.34
2023-08-02T18:38:43.078Z,17.42
2023-08-02T18:41:24.315Z,17.44
2023-08-02T18:43:52.413Z,17.34
2023-08-02T18:46:22.413Z,17.35
2023-08-02T18:48:53.496Z,17.23
2023-08-02T18:51:22.725Z,17.08
2023-08-02T18:53:51.178Z,17.18
2023-08-02T18:56:19.590Z,17.10
2023-08-02T18:58:48.491Z,17.24
2023-08-02T19:01:15.706Z,17.24
2023-08-02T19:03:42.809Z,17.32
2023-08-02T19:06:09.548Z,17.28
2023-08-02T19:08:38.937Z,17.32
2023-08-02T19:11:17.254Z,17.39
2023-08-02T19:13:49.778Z,17.26
2023-08-02T19:16:16.721Z,17.33
2023-08-02T19:18:43.629Z,17.26
2023-08-02T19:21:14.414Z,17.16
2023-08-02T19:23:44.981Z,16.99
2023-08-02T19:26:17.992Z,17.02
2023-08-02T19:28:45.597Z,16.95
2023-08-02T19:31:12.328Z,17.01
2023-08-02T19:33:45.676Z,17.02
2023-08-02T19:36:23.138Z,17.01
2023-08-02T19:38:50.397Z,16.94
2023-08-02T19:41:26.279Z,16.85
2023-08-02T19:43:52.985Z,16.95
2023-08-02T19:46:21.498Z,16.80
2023-08-02T19:48:48.342Z,16.94
2023-08-02T19:51:15.034Z,16.88
2023-08-02T19:53:48.232Z,16.91
2023-08-02T19:56:20.940Z,16.80
2023-08-02T19:58:47.780Z,16.60
2023-08-02T20:01:14.800Z,16.64
2023-08-02T20:03:41.646Z,16.70
2023-08-02T20:06:09.229Z,16.74
2023-08-02T20:08:36.347Z,16.76
2023-08-02T20:11:05.824Z,16.62
2023-08-02T20:13:43.657Z,16.37
2023-08-02T20:16:33.506Z,16.40
2023-08-02T20:19:01.323Z,16.43
2023-08-02T20:21:27.932Z,16.61
2023-08-02T20:23:57.916Z,16.61
2023-08-02T20:26:26.498Z,16.45
2023-08-02T20:28:56.992Z,16.49
2023-08-02T20:31:33.229Z,16.47
2023-08-02T20:33:59.991Z,16.51
2023-08-02T20:36:26.640Z,16.28
2023-08-02T20:38:55.551Z,16.36
2023-08-02T20:41:27.625Z,16.33
2023-08-02T20:43:56.420Z,16.04
2023-08-02T20:46:28.993Z,16.08
2023-08-02T20:49:00.858Z,16.14
2023-08-02T20:51:31.251Z,15.99
2023-08-02T20:53:59.316Z,15.88
2023-08-02T20:56:26.183Z,16.08
2023-08-02T20:58:52.965Z,15.91
2023-08-02T21:01:19.731Z,15.90
2023-08-02T21:03:48.126Z,15.91
2023-08-02T21:06:15.172Z,16.03
2023-08-02T21:08:43.025Z,15.94
2023-08-02T21:11:10.841Z,16.03
2023-08-02T21:13:37.428Z,15.94
2023-08-02T21:16:04.374Z,16.04
2023-08-02T21:18:33.213Z,15.98
2023-08-02T21:21:00.724Z,15.98
2023-08-02T21:23:27.733Z,15.90
2023-08-02T21:25:58.998Z,15.80
2023-08-02T21:28:28.306Z,16.03
2023-08-02T21:31:00.277Z,15.93
2023-08-02T21:33:31.411Z,15.85
2023-08-02T21:35:59.651Z,15.96
2023-08-02T21:38:29.873Z,15.75
2023-08-02T21:40:59.499Z,15.87
2023-08-02T21:43:28.220Z,15.83
2023-08-02T21:45:58.634Z,15.81
2023-08-02T21:48:25.393Z,15.84
2023-08-02T21:50:52.057Z,15.83
2023-08-02T21:53:23.785Z,15.83
2023-08-02T21:55:53.949Z,15.90
2023-08-02T21:58:28.742Z,15.85
2023-08-02T22:00:55.761Z,16.07
2023-08-02T22:03:22.579Z,16.03
2023-08-02T22:05:49.382Z,16.19
2023-08-02T22:08:28.195Z,16.01
2023-08-02T22:10:54.826Z,16.10
2023-08-02T22:13:21.694Z,16.07
2023-08-02T22:15:48.318Z,16.06
2023-08-02T22:18:16.758Z,16.07
2023-08-02T22:20:43.989Z,15.88
2023-08-02T22:23:11.228Z,15.94
2023-08-02T22:25:38.131Z,15.96
2023-08-02T22:28:05.732Z,15.89
2023-08-02T22:30:32.414Z,15.73
2023-08-02T22:32:59.470Z,15.72
2023-08-02T22:35:26.301Z,15.90
2023-08-02T22:37:52.916Z,15.83
2023-08-02T22:40:19.610Z,15.69
2023-08-02T22:42:46.189Z,15.81
2023-08-02T22:45:12.783Z,15.75
2023-08-02T22:47:39.441Z,15.67
2023-08-02T22:52:36.166Z,15.81
2023-08-02T22:55:03.103Z,15.84
2023-08-02T22:57:32.773Z,15.71
2023-08-02T22:59:59.730Z,15.78
2023-08-02T23:02:34.144Z,15.78
2023-08-02T23:05:02.365Z,15.94
2023-08-02T23:07:33.773Z,15.75
2023-08-02T23:10:03.261Z,15.80
2023-08-02T23:12:39.237Z,15.75
2023-08-02T23:15:18.074Z,15.76
2023-08-02T23:17:44.709Z,15.82
2023-08-02T23:20:35.329Z,15.88
2023-08-02T23:23:02.676Z,15.81
2023-08-02T23:25:29.473Z,15.66
2023-08-02T23:27:56.467Z,15.88
2023-08-02T23:30:28.426Z,15.74
2023-08-02T23:32:55.205Z,15.60
2023-08-02T23:35:21.927Z,15.66
2023-08-02T23:37:52.465Z,15.64
2023-08-02T23:40:19.122Z,15.66
2023-08-02T23:42:45.741Z,15.73
2023-08-02T23:45:12.374Z,15.65
2023-08-02T23:47:38.965Z,15.65
2023-08-02T23:50:05.992Z,15.73
2023-08-02T23:52:32.575Z,15.73
2023-08-02T23:54:59.158Z,15.64
2023-08-02T23:57:25.767Z,15.62
2023-08-02T23:59:52.368Z,15.59
